sensor_id;sensor_type;location;lat;lon;timestamp;P1;durP1;ratioP1;P2;durP2;ratioP2
2001;SDS011;1003;48.002;7.788;2023-06-04T00:02:24;8.07;;;6.00;;
2001;SDS011;1003;48.002;7.788;2023-06-04T00:04:51;8.10;;;6.20;;
2001;SDS011;1003;48.002;7.788;2023-06-04T00:07:19;10.07;;;6.60;;
2001;SDS011;1003;48.002;7.788;2023-06-04T00:09:46;7.63;;;6.20;;
2001;SDS011;1003;48.002;7.788;2023-06-04T00:12:13;8.87;;;6.30;;
2001;SDS011;1003;48.002;7.788;2023-06-04T00:14:41;8.43;;;6.33;;
2001;SDS011;1003;48.002;7.788;2023-06-04T00:17:10;9.00;;;6.13;;
2001;SDS011;1003;48.002;7.788;2023-06-04T00:19:37;9.30;;;6.37;;
2001;SDS011;1003;48.002;7.788;2023-06-04T00:22:05;8.47;;;6.33;;
2001;SDS011;1003;48.002;7.788;2023-06-04T00:24:33;8.57;;;6.23;;
2001;SDS011;1003;48.002;7.788;2023-06-04T00:27:01;8.37;;;6.10;;
2001;SDS011;1003;48.002;7.788;2023-06-04T00:29:28;8.00;;;5.80;;
2001;SDS011;1003;48.002;7.788;2023-06-04T00:31:55;8.33;;;6.10;;
2001;SDS011;1003;48.002;7.788;2023-06-04T00:34:24;9.80;;;6.67;;
2001;SDS011;1003;48.002;7.788;2023-06-04T00:36:51;8.43;;;6.03;;
2001;SDS011;1003;48.002;7.788;2023-06-04T00:39:18;8.10;;;5.90;;
2001;SDS011;1003;48.002;7.788;2023-06-04T00:41:45;9.70;;;6.37;;
2001;SDS011;1003;48.002;7.788;2023-06-04T00:44:13;8.43;;;6.33;;
2001;SDS011;1003;48.002;7.788;2023-06-04T00:46:44;7.63;;;5.60;;
2001;SDS011;1003;48.002;7.788;2023-06-04T00:49:12;9.70;;;6.00;;
2001;SDS011;1003;48.002;7.788;2023-06-04T00:51:41;9.67;;;6.30;;
2001;SDS011;1003;48.002;7.788;2023-06-04T00:54:08;9.03;;;5.73;;
2001;SDS011;1003;48.002;7.788;2023-06-04T00:56:36;8.83;;;6.13;;
2001;SDS011;1003;48.002;7.788;2023-06-04T00:59:05;8.00;;;5.83;;
2001;SDS011;1003;48.002;7.788;2023-06-04T01:01:35;9.00;;;5.93;;
2001;SDS011;1003;48.002;7.788;2023-06-04T01:04:15;8.43;;;5.90;;
2001;SDS011;1003;48.002;7.788;2023-06-04T01:06:51;8.33;;;5.90;;
2001;SDS011;1003;48.002;7.788;2023-06-04T01:09:24;8.70;;;5.67;;
2001;SDS011;1003;48.002;7.788;2023-06-04T01:11:53;6.80;;;5.27;;
2001;SDS011;1003;48.002;7.788;2023-06-04T01:14:22;8.77;;;5.73;;
2001;SDS011;1003;48.002;7.788;2023-06-04T01:16:53;7.63;;;5.43;;
2001;SDS011;1003;48.002;7.788;2023-06-04T01:22:43;6.40;;;5.40;;
2001;SDS011;1003;48.002;7.788;2023-06-04T01:25:25;7.40;;;5.70;;
2001;SDS011;1003;48.002;7.788;2023-06-04T01:27:59;7.70;;;5.40;;
2001;SDS011;1003;48.002;7.788;2023-06-04T01:30:30;7.50;;;5.87;;
2001;SDS011;1003;48.002;7.788;2023-06-04T01:32:59;8.20;;;6.00;;
2001;SDS011;1003;48.002;7.788;2023-06-04T01:35:28;7.83;;;5.60;;
2001;SDS011;1003;48.002;7.788;2023-06-04T01:37:58;8.00;;;5.90;;
2001;SDS011;1003;48.002;7.788;2023-06-04T01:40:25;10.10;;;6.80;;
2001;SDS011;1003;48.002;7.788;2023-06-04T01:42:53;9.33;;;6.23;;
2001;SDS011;1003;48.002;7.788;2023-06-04T01:45:20;8.60;;;5.90;;
2001;SDS011;1003;48.002;7.788;2023-06-04T01:47:49;9.43;;;5.83;;
2001;SDS011;1003;48.002;7.788;2023-06-04T01:50:16;8.40;;;6.10;;
2001;SDS011;1003;48.002;7.788;2023-06-04T01:52:43;9.47;;;5.70;;
2001;SDS011;1003;48.002;7.788;2023-06-04T01:55:12;8.47;;;5.67;;
2001;SDS011;1003;48.002;7.788;2023-06-04T01:57:42;8.90;;;5.50;;
2001;SDS011;1003;48.002;7.788;2023-06-04T02:00:12;7.53;;;5.70;;
2001;SDS011;1003;48.002;7.788;2023-06-04T02:02:41;10.90;;;5.83;;
2001;SDS011;1003;48.002;7.788;2023-06-04T02:05:11;8.97;;;5.80;;
2001;SDS011;1003;48.002;7.788;2023-06-04T02:07:39;7.90;;;5.60;;
2001;SDS011;1003;48.002;7.788;2023-06-04T02:10:10;8.63;;;5.83;;
2001;SDS011;1003;48.002;7.788;2023-06-04T02:12:40;6.87;;;5.40;;
2001;SDS011;1003;48.002;7.788;2023-06-04T02:15:20;8.60;;;6.17;;
2001;SDS011;1003;48.002;7.788;2023-06-04T02:17:48;7.27;;;5.40;;
2001;SDS011;1003;48.002;7.788;2023-06-04T02:20:16;8.07;;;6.10;;
2001;SDS011;1003;48.002;7.788;2023-06-04T02:22:43;8.37;;;5.50;;
2001;SDS011;1003;48.002;7.788;2023-06-04T02:25:10;7.57;;;5.80;;
2001;SDS011;1003;48.002;7.788;2023-06-04T02:27:39;10.67;;;5.60;;
2001;SDS011;1003;48.002;7.788;2023-06-04T02:30:06;9.60;;;5.57;;
2001;SDS011;1003;48.002;7.788;2023-06-04T02:32:35;8.43;;;5.30;;
2001;SDS011;1003;48.002;7.788;2023-06-04T02:35:02;9.17;;;5.50;;
2001;SDS011;1003;48.002;7.788;2023-06-04T02:37:30;6.67;;;5.37;;
2001;SDS011;1003;48.002;7.788;2023-06-04T02:39:57;8.00;;;5.57;;
2001;SDS011;1003;48.002;7.788;2023-06-04T02:42:25;11.30;;;5.60;;
2001;SDS011;1003;48.002;7.788;2023-06-04T02:44:52;8.60;;;5.40;;
2001;SDS011;1003;48.002;7.788;2023-06-04T02:47:19;8.50;;;5.57;;
2001;SDS011;1003;48.002;7.788;2023-06-04T02:49:46;7.37;;;5.40;;
2001;SDS011;1003;48.002;7.788;2023-06-04T02:52:13;9.33;;;5.47;;
2001;SDS011;1003;48.002;7.788;2023-06-04T02:54:41;7.10;;;5.30;;
2001;SDS011;1003;48.002;7.788;2023-06-04T02:57:08;6.97;;;4.97;;
2001;SDS011;1003;48.002;7.788;2023-06-04T02:59:37;9.13;;;5.03;;
2001;SDS011;1003;48.002;7.788;2023-06-04T03:02:04;7.00;;;5.40;;
2001;SDS011;1003;48.002;7.788;2023-06-04T03:04:34;6.87;;;5.23;;
2001;SDS011;1003;48.002;7.788;2023-06-04T03:07:03;7.17;;;5.23;;
2001;SDS011;1003;48.002;7.788;2023-06-04T03:09:33;9.73;;;5.27;;
2001;SDS011;1003;48.002;7.788;2023-06-04T03:12:00;7.33;;;5.40;;
2001;SDS011;1003;48.002;7.788;2023-06-04T03:14:28;8.00;;;4.93;;
2001;SDS011;1003;48.002;7.788;2023-06-04T03:16:59;6.63;;;4.80;;
2001;SDS011;1003;48.002;7.788;2023-06-04T03:19:32;7.50;;;4.90;;
2001;SDS011;1003;48.002;7.788;2023-06-04T03:22:01;7.13;;;4.73;;
2001;SDS011;1003;48.002;7.788;2023-06-04T03:24:30;6.70;;;4.67;;
2001;SDS011;1003;48.002;7.788;2023-06-04T03:27:01;7.90;;;5.13;;
2001;SDS011;1003;48.002;7.788;2023-06-04T03:29:28;6.40;;;4.53;;
2001;SDS011;1003;48.002;7.788;2023-06-04T03:31:57;6.40;;;4.43;;
2001;SDS011;1003;48.002;7.788;2023-06-04T03:34:25;7.00;;;4.50;;
2001;SDS011;1003;48.002;7.788;2023-06-04T03:36:52;7.67;;;4.20;;
2001;SDS011;1003;48.002;7.788;2023-06-04T03:39:21;5.63;;;4.10;;
2001;SDS011;1003;48.002;7.788;2023-06-04T03:41:49;6.20;;;4.30;;
2001;SDS011;1003;48.002;7.788;2023-06-04T03:46:59;6.37;;;4.50;;
2001;SDS011;1003;48.002;7.788;2023-06-04T03:49:26;8.90;;;4.43;;
2001;SDS011;1003;48.002;7.788;2023-06-04T03:51:53;6.67;;;4.03;;
2001;SDS011;1003;48.002;7.788;2023-06-04T03:54:21;5.73;;;4.20;;
2001;SDS011;1003;48.002;7.788;2023-06-04T03:56:48;7.57;;;4.00;;
2001;SDS011;1003;48.002;7.788;2023-06-04T03:59:15;6.47;;;3.70;;
2001;SDS011;1003;48.002;7.788;2023-06-04T04:01:42;5.40;;;3.90;;
2001;SDS011;1003;48.002;7.788;2023-06-04T04:04:11;6.47;;;3.93;;
2001;SDS011;1003;48.002;7.788;2023-06-04T04:06:38;5.30;;;3.93;;
2001;SDS011;1003;48.002;7.788;2023-06-04T04:09:06;6.53;;;4.00;;
2001;SDS011;1003;48.002;7.788;2023-06-04T04:11:33;4.70;;;3.57;;
2001;SDS011;1003;48.002;7.788;2023-06-04T04:14:00;6.67;;;3.70;;
2001;SDS011;1003;48.002;7.788;2023-06-04T04:16:28;6.43;;;3.73;;
2001;SDS011;1003;48.002;7.788;2023-06-04T04:18:55;5.53;;;3.50;;
2001;SDS011;1003;48.002;7.788;2023-06-04T04:21:24;4.67;;;3.10;;
2001;SDS011;1003;48.002;7.788;2023-06-04T04:23:52;5.10;;;3.23;;
2001;SDS011;1003;48.002;7.788;2023-06-04T04:26:19;4.43;;;3.40;;
2001;SDS011;1003;48.002;7.788;2023-06-04T04:28:46;5.03;;;3.70;;
2001;SDS011;1003;48.002;7.788;2023-06-04T04:31:13;5.80;;;3.53;;
2001;SDS011;1003;48.002;7.788;2023-06-04T04:33:40;5.30;;;3.60;;
2001;SDS011;1003;48.002;7.788;2023-06-04T04:36:08;5.17;;;3.63;;
2001;SDS011;1003;48.002;7.788;2023-06-04T04:38:39;5.77;;;3.57;;
2001;SDS011;1003;48.002;7.788;2023-06-04T04:41:06;4.53;;;3.23;;
2001;SDS011;1003;48.002;7.788;2023-06-04T04:43:37;4.97;;;3.50;;
2001;SDS011;1003;48.002;7.788;2023-06-04T04:46:05;5.43;;;3.27;;
2001;SDS011;1003;48.002;7.788;2023-06-04T04:48:33;5.60;;;3.70;;
2001;SDS011;1003;48.002;7.788;2023-06-04T04:51:00;5.07;;;3.10;;
2001;SDS011;1003;48.002;7.788;2023-06-04T04:53:27;4.47;;;3.27;;
2001;SDS011;1003;48.002;7.788;2023-06-04T04:55:56;6.30;;;3.53;;
2001;SDS011;1003;48.002;7.788;2023-06-04T04:58:24;4.00;;;3.10;;
2001;SDS011;1003;48.002;7.788;2023-06-04T05:00:51;4.77;;;2.97;;
2001;SDS011;1003;48.002;7.788;2023-06-04T05:03:18;5.67;;;3.00;;
2001;SDS011;1003;48.002;7.788;2023-06-04T05:05:45;4.67;;;3.00;;
2001;SDS011;1003;48.002;7.788;2023-06-04T05:08:12;4.23;;;3.20;;
2001;SDS011;1003;48.002;7.788;2023-06-04T05:10:39;7.17;;;3.57;;
2001;SDS011;1003;48.002;7.788;2023-06-04T05:13:07;5.83;;;3.07;;
2001;SDS011;1003;48.002;7.788;2023-06-04T05:15:36;6.87;;;3.33;;
2001;SDS011;1003;48.002;7.788;2023-06-04T05:18:04;4.23;;;3.03;;
2001;SDS011;1003;48.002;7.788;2023-06-04T05:20:32;5.03;;;3.20;;
2001;SDS011;1003;48.002;7.788;2023-06-04T05:23:02;4.93;;;3.37;;
2001;SDS011;1003;48.002;7.788;2023-06-04T05:25:32;3.83;;;3.07;;
2001;SDS011;1003;48.002;7.788;2023-06-04T05:28:00;6.50;;;3.23;;
2001;SDS011;1003;48.002;7.788;2023-06-04T05:30:28;4.93;;;3.40;;
2001;SDS011;1003;48.002;7.788;2023-06-04T05:32:56;3.10;;;2.80;;
2001;SDS011;1003;48.002;7.788;2023-06-04T05:35:24;5.47;;;2.80;;
2001;SDS011;1003;48.002;7.788;2023-06-04T05:37:51;5.57;;;3.10;;
2001;SDS011;1003;48.002;7.788;2023-06-04T05:40:18;4.67;;;3.13;;
2001;SDS011;1003;48.002;7.788;2023-06-04T05:42:47;5.83;;;3.20;;
2001;SDS011;1003;48.002;7.788;2023-06-04T05:45:14;4.30;;;2.77;;
2001;SDS011;1003;48.002;7.788;2023-06-04T05:47:46;5.53;;;3.00;;
2001;SDS011;1003;48.002;7.788;2023-06-04T05:50:13;3.83;;;2.90;;
2001;SDS011;1003;48.002;7.788;2023-06-04T05:52:40;3.90;;;2.90;;
2001;SDS011;1003;48.002;7.788;2023-06-04T05:55:09;4.87;;;3.30;;
2001;SDS011;1003;48.002;7.788;2023-06-04T05:57:36;4.90;;;3.20;;
2001;SDS011;1003;48.002;7.788;2023-06-04T06:00:03;6.10;;;3.30;;
2001;SDS011;1003;48.002;7.788;2023-06-04T06:02:35;4.10;;;3.10;;
2001;SDS011;1003;48.002;7.788;2023-06-04T06:05:05;4.83;;;3.07;;
2001;SDS011;1003;48.002;7.788;2023-06-04T06:07:33;5.83;;;3.07;;
2001;SDS011;1003;48.002;7.788;2023-06-04T06:10:00;6.73;;;3.10;;
2001;SDS011;1003;48.002;7.788;2023-06-04T06:12:27;4.83;;;3.10;;
2001;SDS011;1003;48.002;7.788;2023-06-04T06:14:55;4.50;;;3.00;;
2001;SDS011;1003;48.002;7.788;2023-06-04T06:17:22;4.97;;;3.00;;
2001;SDS011;1003;48.002;7.788;2023-06-04T06:19:49;5.00;;;3.27;;
2001;SDS011;1003;48.002;7.788;2023-06-04T06:22:18;3.53;;;2.80;;
2001;SDS011;1003;48.002;7.788;2023-06-04T06:24:45;4.87;;;2.90;;
2001;SDS011;1003;48.002;7.788;2023-06-04T06:27:13;5.33;;;3.30;;
2001;SDS011;1003;48.002;7.788;2023-06-04T06:29:41;6.63;;;3.43;;
2001;SDS011;1003;48.002;7.788;2023-06-04T06:32:08;5.43;;;3.37;;
2001;SDS011;1003;48.002;7.788;2023-06-04T06:34:38;4.83;;;3.47;;
2001;SDS011;1003;48.002;7.788;2023-06-04T06:37:06;5.67;;;2.93;;
2001;SDS011;1003;48.002;7.788;2023-06-04T06:39:34;5.40;;;3.30;;
2001;SDS011;1003;48.002;7.788;2023-06-04T06:42:01;4.63;;;3.10;;
2001;SDS011;1003;48.002;7.788;2023-06-04T06:44:29;5.73;;;3.23;;
2001;SDS011;1003;48.002;7.788;2023-06-04T06:46:56;3.97;;;3.13;;
2001;SDS011;1003;48.002;7.788;2023-06-04T06:49:23;4.20;;;3.10;;
2001;SDS011;1003;48.002;7.788;2023-06-04T06:51:50;6.37;;;3.57;;
2001;SDS011;1003;48.002;7.788;2023-06-04T06:54:17;4.83;;;3.17;;
2001;SDS011;1003;48.002;7.788;2023-06-04T06:56:48;7.63;;;3.50;;
2001;SDS011;1003;48.002;7.788;2023-06-04T06:59:15;4.67;;;3.30;;
2001;SDS011;1003;48.002;7.788;2023-06-04T07:01:42;5.10;;;3.50;;
2001;SDS011;1003;48.002;7.788;2023-06-04T07:04:10;4.50;;;3.80;;
2001;SDS011;1003;48.002;7.788;2023-06-04T07:06:37;5.77;;;3.53;;
2001;SDS011;1003;48.002;7.788;2023-06-04T07:09:05;4.97;;;3.20;;
2001;SDS011;1003;48.002;7.788;2023-06-04T07:11:32;5.50;;;3.10;;
2001;SDS011;1003;48.002;7.788;2023-06-04T07:14:01;5.23;;;3.07;;
2001;SDS011;1003;48.002;7.788;2023-06-04T07:16:28;5.90;;;3.33;;
2001;SDS011;1003;48.002;7.788;2023-06-04T07:18:55;3.60;;;3.00;;
2001;SDS011;1003;48.002;7.788;2023-06-04T07:21:22;4.90;;;3.40;;
2001;SDS011;1003;48.002;7.788;2023-06-04T07:23:50;4.90;;;3.00;;
2001;SDS011;1003;48.002;7.788;2023-06-04T07:26:17;5.40;;;3.27;;
2001;SDS011;1003;48.002;7.788;2023-06-04T07:28:45;3.43;;;2.80;;
2001;SDS011;1003;48.002;7.788;2023-06-04T07:31:15;4.87;;;3.17;;
2001;SDS011;1003;48.002;7.788;2023-06-04T07:33:43;4.33;;;3.23;;
2001;SDS011;1003;48.002;7.788;2023-06-04T07:36:10;4.83;;;3.20;;
2001;SDS011;1003;48.002;7.788;2023-06-04T07:38:39;6.50;;;2.90;;
2001;SDS011;1003;48.002;7.788;2023-06-04T07:41:06;4.37;;;3.00;;
2001;SDS011;1003;48.002;7.788;2023-06-04T07:43:34;5.20;;;2.90;;
2001;SDS011;1003;48.002;7.788;2023-06-04T07:46:02;3.67;;;3.07;;
2001;SDS011;1003;48.002;7.788;2023-06-04T07:48:32;5.00;;;3.30;;
2001;SDS011;1003;48.002;7.788;2023-06-04T07:51:01;4.60;;;3.30;;
2001;SDS011;1003;48.002;7.788;2023-06-04T07:53:29;7.17;;;3.07;;
2001;SDS011;1003;48.002;7.788;2023-06-04T07:55:57;4.30;;;2.90;;
2001;SDS011;1003;48.002;7.788;2023-06-04T07:58:24;4.23;;;2.90;;
2001;SDS011;1003;48.002;7.788;2023-06-04T08:00:51;4.30;;;3.00;;
2001;SDS011;1003;48.002;7.788;2023-06-04T08:03:19;3.23;;;2.63;;
2001;SDS011;1003;48.002;7.788;2023-06-04T08:05:50;4.47;;;2.67;;
2001;SDS011;1003;48.002;7.788;2023-06-04T08:08:17;3.17;;;2.70;;
2001;SDS011;1003;48.002;7.788;2023-06-04T08:10:45;5.27;;;2.80;;
2001;SDS011;1003;48.002;7.788;2023-06-04T08:13:12;4.20;;;2.70;;
2001;SDS011;1003;48.002;7.788;2023-06-04T08:15:39;3.43;;;2.90;;
2001;SDS011;1003;48.002;7.788;2023-06-04T08:18:06;3.53;;;2.80;;
2001;SDS011;1003;48.002;7.788;2023-06-04T08:20:33;4.13;;;2.57;;
2001;SDS011;1003;48.002;7.788;2023-06-04T08:23:01;3.57;;;2.63;;
2001;SDS011;1003;48.002;7.788;2023-06-04T08:25:28;3.97;;;2.50;;
2001;SDS011;1003;48.002;7.788;2023-06-04T08:27:56;3.87;;;2.60;;
2001;SDS011;1003;48.002;7.788;2023-06-04T08:30:23;3.90;;;2.70;;
2001;SDS011;1003;48.002;7.788;2023-06-04T08:32:52;5.10;;;3.10;;
2001;SDS011;1003;48.002;7.788;2023-06-04T08:35:19;4.73;;;2.73;;
2001;SDS011;1003;48.002;7.788;2023-06-04T08:37:47;5.10;;;3.00;;
2001;SDS011;1003;48.002;7.788;2023-06-04T08:40:15;4.70;;;2.57;;
2001;SDS011;1003;48.002;7.788;2023-06-04T08:42:43;5.23;;;2.60;;
2001;SDS011;1003;48.002;7.788;2023-06-04T08:45:11;5.97;;;2.73;;
2001;SDS011;1003;48.002;7.788;2023-06-04T08:47:43;3.43;;;2.80;;
2001;SDS011;1003;48.002;7.788;2023-06-04T08:50:16;4.83;;;2.70;;
2001;SDS011;1003;48.002;7.788;2023-06-04T08:52:46;4.57;;;2.60;;
2001;SDS011;1003;48.002;7.788;2023-06-04T08:55:15;4.87;;;3.00;;
2001;SDS011;1003;48.002;7.788;2023-06-04T08:57:42;4.33;;;3.30;;
2001;SDS011;1003;48.002;7.788;2023-06-04T09:00:10;3.80;;;3.07;;
2001;SDS011;1003;48.002;7.788;2023-06-04T09:02:38;5.57;;;3.00;;
2001;SDS011;1003;48.002;7.788;2023-06-04T09:05:06;4.40;;;3.50;;
2001;SDS011;1003;48.002;7.788;2023-06-04T09:07:35;3.63;;;2.90;;
2001;SDS011;1003;48.002;7.788;2023-06-04T09:10:06;4.80;;;3.00;;
2001;SDS011;1003;48.002;7.788;2023-06-04T09:12:39;5.03;;;3.00;;
2001;SDS011;1003;48.002;7.788;2023-06-04T09:15:10;5.50;;;2.87;;
2001;SDS011;1003;48.002;7.788;2023-06-04T09:17:37;4.03;;;2.97;;
2001;SDS011;1003;48.002;7.788;2023-06-04T09:20:05;5.03;;;3.00;;
2001;SDS011;1003;48.002;7.788;2023-06-04T09:22:34;6.97;;;2.90;;
2001;SDS011;1003;48.002;7.788;2023-06-04T09:25:04;12.63;;;3.10;;
2001;SDS011;1003;48.002;7.788;2023-06-04T09:27:46;5.50;;;3.40;;
2001;SDS011;1003;48.002;7.788;2023-06-04T09:30:14;4.90;;;3.03;;
2001;SDS011;1003;48.002;7.788;2023-06-04T09:32:41;4.40;;;3.00;;
2001;SDS011;1003;48.002;7.788;2023-06-04T09:35:08;4.83;;;3.10;;
2001;SDS011;1003;48.002;7.788;2023-06-04T09:37:37;4.37;;;2.90;;
2001;SDS011;1003;48.002;7.788;2023-06-04T09:40:05;5.63;;;3.10;;
2001;SDS011;1003;48.002;7.788;2023-06-04T09:42:43;4.27;;;3.23;;
2001;SDS011;1003;48.002;7.788;2023-06-04T09:45:12;5.50;;;3.80;;
2001;SDS011;1003;48.002;7.788;2023-06-04T09:47:40;5.43;;;3.17;;
2001;SDS011;1003;48.002;7.788;2023-06-04T09:50:10;3.57;;;3.00;;
2001;SDS011;1003;48.002;7.788;2023-06-04T09:52:37;4.70;;;3.20;;
2001;SDS011;1003;48.002;7.788;2023-06-04T09:55:15;5.03;;;3.20;;
2001;SDS011;1003;48.002;7.788;2023-06-04T09:57:47;4.67;;;3.30;;
2001;SDS011;1003;48.002;7.788;2023-06-04T10:00:18;4.13;;;3.20;;
2001;SDS011;1003;48.002;7.788;2023-06-04T10:02:48;5.20;;;3.07;;
2001;SDS011;1003;48.002;7.788;2023-06-04T10:05:16;5.33;;;3.73;;
2001;SDS011;1003;48.002;7.788;2023-06-04T10:07:46;5.77;;;3.63;;
2001;SDS011;1003;48.002;7.788;2023-06-04T10:10:18;4.47;;;3.20;;
2001;SDS011;1003;48.002;7.788;2023-06-04T10:12:54;6.53;;;3.67;;
2001;SDS011;1003;48.002;7.788;2023-06-04T10:15:29;4.23;;;3.20;;
2001;SDS011;1003;48.002;7.788;2023-06-04T10:17:59;4.43;;;3.50;;
2001;SDS011;1003;48.002;7.788;2023-06-04T10:20:28;5.37;;;3.70;;
2001;SDS011;1003;48.002;7.788;2023-06-04T10:22:56;5.50;;;3.50;;
2001;SDS011;1003;48.002;7.788;2023-06-04T10:25:25;5.47;;;3.90;;
2001;SDS011;1003;48.002;7.788;2023-06-04T10:27:53;5.43;;;3.60;;
2001;SDS011;1003;48.002;7.788;2023-06-04T10:30:22;7.70;;;4.30;;
2001;SDS011;1003;48.002;7.788;2023-06-04T10:32:50;8.07;;;3.90;;
2001;SDS011;1003;48.002;7.788;2023-06-04T10:35:28;6.47;;;4.03;;
2001;SDS011;1003;48.002;7.788;2023-06-04T10:38:04;4.90;;;4.20;;
2001;SDS011;1003;48.002;7.788;2023-06-04T10:40:33;6.83;;;4.27;;
2001;SDS011;1003;48.002;7.788;2023-06-04T10:43:04;5.00;;;3.83;;
2001;SDS011;1003;48.002;7.788;2023-06-04T10:45:33;7.73;;;4.10;;
2001;SDS011;1003;48.002;7.788;2023-06-04T10:48:01;7.50;;;4.10;;
2001;SDS011;1003;48.002;7.788;2023-06-04T10:50:31;4.70;;;3.67;;
2001;SDS011;1003;48.002;7.788;2023-06-04T10:52:59;5.83;;;3.50;;
2001;SDS011;1003;48.002;7.788;2023-06-04T10:55:28;10.27;;;4.37;;
2001;SDS011;1003;48.002;7.788;2023-06-04T10:57:56;4.67;;;3.47;;
2001;SDS011;1003;48.002;7.788;2023-06-04T11:00:35;4.33;;;3.80;;
2001;SDS011;1003;48.002;7.788;2023-06-04T11:03:04;5.83;;;3.83;;
2001;SDS011;1003;48.002;7.788;2023-06-04T11:05:33;5.93;;;4.03;;
2001;SDS011;1003;48.002;7.788;2023-06-04T11:08:01;5.23;;;3.77;;
2001;SDS011;1003;48.002;7.788;2023-06-04T11:10:31;5.87;;;3.50;;
2001;SDS011;1003;48.002;7.788;2023-06-04T11:13:01;4.57;;;3.67;;
2001;SDS011;1003;48.002;7.788;2023-06-04T11:15:37;4.70;;;3.83;;
2001;SDS011;1003;48.002;7.788;2023-06-04T11:18:06;6.87;;;3.63;;
2001;SDS011;1003;48.002;7.788;2023-06-04T11:20:34;7.50;;;3.87;;
2001;SDS011;1003;48.002;7.788;2023-06-04T11:23:01;5.47;;;3.40;;
2001;SDS011;1003;48.002;7.788;2023-06-04T11:25:28;7.80;;;4.50;;
2001;SDS011;1003;48.002;7.788;2023-06-04T11:27:58;5.80;;;3.67;;
2001;SDS011;1003;48.002;7.788;2023-06-04T11:30:26;6.03;;;3.87;;
2001;SDS011;1003;48.002;7.788;2023-06-04T11:33:00;5.97;;;3.60;;
2001;SDS011;1003;48.002;7.788;2023-06-04T11:35:31;8.03;;;4.30;;
2001;SDS011;1003;48.002;7.788;2023-06-04T11:38:06;6.77;;;3.87;;
2001;SDS011;1003;48.002;7.788;2023-06-04T11:40:34;5.10;;;4.00;;
2001;SDS011;1003;48.002;7.788;2023-06-04T11:43:02;5.97;;;3.90;;
2001;SDS011;1003;48.002;7.788;2023-06-04T11:45:29;4.83;;;4.00;;
2001;SDS011;1003;48.002;7.788;2023-06-04T11:47:57;5.03;;;3.57;;
2001;SDS011;1003;48.002;7.788;2023-06-04T11:50:26;5.37;;;4.17;;
2001;SDS011;1003;48.002;7.788;2023-06-04T11:52:56;4.73;;;3.80;;
2001;SDS011;1003;48.002;7.788;2023-06-04T11:55:25;6.03;;;4.27;;
2001;SDS011;1003;48.002;7.788;2023-06-04T11:57:53;5.87;;;4.27;;
2001;SDS011;1003;48.002;7.788;2023-06-04T12:00:21;5.57;;;4.57;;
2001;SDS011;1003;48.002;7.788;2023-06-04T12:02:49;6.67;;;4.33;;
2001;SDS011;1003;48.002;7.788;2023-06-04T12:05:18;6.67;;;4.30;;
2001;SDS011;1003;48.002;7.788;2023-06-04T12:07:48;5.50;;;4.53;;
2001;SDS011;1003;48.002;7.788;2023-06-04T12:10:17;5.30;;;4.40;;
2001;SDS011;1003;48.002;7.788;2023-06-04T12:12:45;6.63;;;4.20;;
2001;SDS011;1003;48.002;7.788;2023-06-04T12:15:18;9.03;;;4.50;;
2001;SDS011;1003;48.002;7.788;2023-06-04T12:17:49;4.53;;;3.90;;
2001;SDS011;1003;48.002;7.788;2023-06-04T12:20:17;4.97;;;3.90;;
2001;SDS011;1003;48.002;7.788;2023-06-04T12:22:45;5.47;;;3.70;;
2001;SDS011;1003;48.002;7.788;2023-06-04T12:25:22;4.30;;;3.47;;
2001;SDS011;1003;48.002;7.788;2023-06-04T12:27:52;5.87;;;3.80;;
2001;SDS011;1003;48.002;7.788;2023-06-04T12:30:19;6.57;;;4.00;;
2001;SDS011;1003;48.002;7.788;2023-06-04T12:32:47;8.17;;;4.47;;
2001;SDS011;1003;48.002;7.788;2023-06-04T12:35:15;4.83;;;4.30;;
2001;SDS011;1003;48.002;7.788;2023-06-04T12:37:43;4.70;;;3.87;;
2001;SDS011;1003;48.002;7.788;2023-06-04T12:40:10;6.87;;;4.13;;
2001;SDS011;1003;48.002;7.788;2023-06-04T12:42:39;5.70;;;4.33;;
2001;SDS011;1003;48.002;7.788;2023-06-04T12:45:08;5.53;;;3.97;;
2001;SDS011;1003;48.002;7.788;2023-06-04T12:47:38;4.73;;;3.93;;
2001;SDS011;1003;48.002;7.788;2023-06-04T12:50:07;5.43;;;3.73;;
2001;SDS011;1003;48.002;7.788;2023-06-04T12:52:35;7.20;;;4.43;;
2001;SDS011;1003;48.002;7.788;2023-06-04T12:55:02;5.00;;;3.90;;
2001;SDS011;1003;48.002;7.788;2023-06-04T12:57:30;6.13;;;3.97;;
2001;SDS011;1003;48.002;7.788;2023-06-04T12:59:59;6.13;;;4.00;;
2001;SDS011;1003;48.002;7.788;2023-06-04T13:02:26;5.37;;;3.83;;
2001;SDS011;1003;48.002;7.788;2023-06-04T13:04:53;7.93;;;4.43;;
2001;SDS011;1003;48.002;7.788;2023-06-04T13:07:21;4.23;;;3.80;;
2001;SDS011;1003;48.002;7.788;2023-06-04T13:09:48;4.63;;;3.90;;
2001;SDS011;1003;48.002;7.788;2023-06-04T13:12:15;6.17;;;3.97;;
2001;SDS011;1003;48.002;7.788;2023-06-04T13:14:42;8.10;;;4.33;;
2001;SDS011;1003;48.002;7.788;2023-06-04T13:17:11;5.53;;;3.97;;
2001;SDS011;1003;48.002;7.788;2023-06-04T13:19:38;5.40;;;3.80;;
2001;SDS011;1003;48.002;7.788;2023-06-04T13:22:05;6.90;;;3.70;;
2001;SDS011;1003;48.002;7.788;2023-06-04T13:24:34;3.97;;;3.57;;
2001;SDS011;1003;48.002;7.788;2023-06-04T13:27:01;6.07;;;3.67;;
2001;SDS011;1003;48.002;7.788;2023-06-04T13:29:28;4.57;;;3.73;;
2001;SDS011;1003;48.002;7.788;2023-06-04T13:31:58;5.33;;;3.67;;
2001;SDS011;1003;48.002;7.788;2023-06-04T13:34:27;5.37;;;3.80;;
2001;SDS011;1003;48.002;7.788;2023-06-04T13:36:56;3.87;;;3.40;;
2001;SDS011;1003;48.002;7.788;2023-06-04T13:39:23;7.67;;;4.10;;
2001;SDS011;1003;48.002;7.788;2023-06-04T13:41:50;5.63;;;4.00;;
2001;SDS011;1003;48.002;7.788;2023-06-04T13:44:17;6.03;;;3.90;;
2001;SDS011;1003;48.002;7.788;2023-06-04T13:46:45;5.17;;;3.67;;
2001;SDS011;1003;48.002;7.788;2023-06-04T13:49:12;5.10;;;3.87;;
2001;SDS011;1003;48.002;7.788;2023-06-04T13:51:41;8.80;;;4.20;;
2001;SDS011;1003;48.002;7.788;2023-06-04T13:54:08;6.90;;;3.97;;
2001;SDS011;1003;48.002;7.788;2023-06-04T13:56:35;4.77;;;4.10;;
2001;SDS011;1003;48.002;7.788;2023-06-04T13:59:02;4.43;;;3.80;;
2001;SDS011;1003;48.002;7.788;2023-06-04T14:01:29;6.03;;;3.67;;
2001;SDS011;1003;48.002;7.788;2023-06-04T14:03:56;6.43;;;3.83;;
2001;SDS011;1003;48.002;7.788;2023-06-04T14:06:24;4.93;;;3.77;;
2001;SDS011;1003;48.002;7.788;2023-06-04T14:08:53;4.80;;;3.73;;
2001;SDS011;1003;48.002;7.788;2023-06-04T14:11:20;5.57;;;3.70;;
2001;SDS011;1003;48.002;7.788;2023-06-04T14:13:47;6.47;;;4.03;;
2001;SDS011;1003;48.002;7.788;2023-06-04T14:16:14;6.87;;;3.97;;
2001;SDS011;1003;48.002;7.788;2023-06-04T14:18:41;5.20;;;4.07;;
2001;SDS011;1003;48.002;7.788;2023-06-04T14:21:11;5.47;;;3.90;;
2001;SDS011;1003;48.002;7.788;2023-06-04T14:23:38;8.43;;;3.90;;
2001;SDS011;1003;48.002;7.788;2023-06-04T14:26:07;5.27;;;3.93;;
2001;SDS011;1003;48.002;7.788;2023-06-04T14:28:35;6.87;;;4.23;;
2001;SDS011;1003;48.002;7.788;2023-06-04T14:31:02;7.53;;;3.83;;
2001;SDS011;1003;48.002;7.788;2023-06-04T14:33:30;6.67;;;4.17;;
2001;SDS011;1003;48.002;7.788;2023-06-04T14:36:00;6.70;;;4.10;;
2001;SDS011;1003;48.002;7.788;2023-06-04T14:38:27;7.23;;;4.40;;
2001;SDS011;1003;48.002;7.788;2023-06-04T14:40:54;4.30;;;3.90;;
2001;SDS011;1003;48.002;7.788;2023-06-04T14:43:23;5.27;;;3.87;;
2001;SDS011;1003;48.002;7.788;2023-06-04T14:45:50;4.83;;;4.20;;
2001;SDS011;1003;48.002;7.788;2023-06-04T14:48:17;5.13;;;4.20;;
2001;SDS011;1003;48.002;7.788;2023-06-04T14:50:44;5.30;;;4.33;;
2001;SDS011;1003;48.002;7.788;2023-06-04T14:53:12;4.83;;;3.90;;
2001;SDS011;1003;48.002;7.788;2023-06-04T14:55:39;4.97;;;4.00;;
2001;SDS011;1003;48.002;7.788;2023-06-04T14:58:07;5.17;;;4.10;;
2001;SDS011;1003;48.002;7.788;2023-06-04T15:00:36;6.40;;;4.03;;
2001;SDS011;1003;48.002;7.788;2023-06-04T15:03:03;5.87;;;3.90;;
2001;SDS011;1003;48.002;7.788;2023-06-04T15:05:30;6.30;;;3.80;;
2001;SDS011;1003;48.002;7.788;2023-06-04T15:08:00;7.33;;;3.90;;
2001;SDS011;1003;48.002;7.788;2023-06-04T15:10:29;4.37;;;3.87;;
2001;SDS011;1003;48.002;7.788;2023-06-04T15:12:58;4.83;;;3.73;;
2001;SDS011;1003;48.002;7.788;2023-06-04T15:15:26;4.57;;;3.80;;
2001;SDS011;1003;48.002;7.788;2023-06-04T15:17:54;5.03;;;3.63;;
2001;SDS011;1003;48.002;7.788;2023-06-04T15:20:21;5.63;;;3.80;;
2001;SDS011;1003;48.002;7.788;2023-06-04T15:22:50;4.93;;;3.80;;
2001;SDS011;1003;48.002;7.788;2023-06-04T15:25:17;6.00;;;3.70;;
2001;SDS011;1003;48.002;7.788;2023-06-04T15:27:44;5.13;;;3.90;;
2001;SDS011;1003;48.002;7.788;2023-06-04T15:30:11;5.40;;;3.70;;